createdAt,value
2018-12-14T00:02:25.066Z,10.63
2018-12-14T00:04:52.710Z,10.80
2018-12-14T00:07:20.261Z,11.20
2018-12-14T00:09:47.950Z,10.97
2018-12-14T00:12:15.607Z,10.40
2018-12-14T00:14:43.176Z,10.37
2018-12-14T00:17:10.736Z,10.67
2018-12-14T00:19:38.418Z,10.60
2018-12-14T00:22:05.950Z,9.90
2018-12-14T00:24:33.513Z,9.67
2018-12-14T00:27:01.357Z,11.37
2018-12-14T00:29:28.906Z,11.47
2018-12-14T00:31:56.517Z,10.40
2018-12-14T00:34:24.082Z,9.77
2018-12-14T00:36:51.614Z,10.40
2018-12-14T00:39:19.172Z,10.83
2018-12-14T00:41:51.988Z,10.73
2018-12-14T00:44:16.350Z,9.97
2018-12-14T00:46:44.789Z,11.10
2018-12-14T00:49:12.393Z,11.23
2018-12-14T00:51:39.950Z,9.90
2018-12-14T00:54:07.737Z,11.57
2018-12-14T00:56:35.321Z,10.80
2018-12-14T00:59:02.838Z,9.87
2018-12-14T01:01:30.409Z,10.00
2018-12-14T01:03:57.968Z,11.43
2018-12-14T01:06:25.622Z,10.40
2018-12-14T01:08:53.180Z,11.57
2018-12-14T01:11:20.970Z,11.13
2018-12-14T01:13:48.711Z,10.30
2018-12-14T01:16:16.247Z,10.30
2018-12-14T01:18:43.766Z,10.80
2018-12-14T01:21:11.359Z,9.90
2018-12-14T01:23:39.072Z,10.23
2018-12-14T01:26:06.614Z,10.20
2018-12-14T01:28:34.185Z,10.93
2018-12-14T01:31:01.751Z,9.50
2018-12-14T01:33:29.327Z,11.00
2018-12-14T01:35:56.999Z,9.87
2018-12-14T01:38:24.512Z,10.67
2018-12-14T01:40:52.100Z,11.33
2018-12-14T01:43:19.620Z,10.00
2018-12-14T01:45:47.306Z,10.20
2018-12-14T01:48:14.844Z,10.07
2018-12-14T01:50:42.427Z,9.80
2018-12-14T01:53:09.970Z,10.73
2018-12-14T01:55:37.962Z,9.77
2018-12-14T01:58:05.590Z,10.47
2018-12-14T02:00:33.253Z,10.23
2018-12-14T02:03:00.999Z,10.90
2018-12-14T02:05:28.610Z,10.00
2018-12-14T02:07:56.261Z,10.37
2018-12-14T02:10:23.838Z,10.10
2018-12-14T02:12:51.434Z,10.70
2018-12-14T02:15:18.980Z,10.57
2018-12-14T02:17:46.563Z,11.17
2018-12-14T02:20:14.234Z,10.00
2018-12-14T02:22:41.878Z,10.00
2018-12-14T02:25:09.422Z,11.10
2018-12-14T02:27:36.987Z,10.60
2018-12-14T02:30:16.536Z,10.60
2018-12-14T02:32:44.205Z,10.90
2018-12-14T02:35:11.722Z,10.50
2018-12-14T02:37:39.329Z,10.50
2018-12-14T02:40:07.091Z,11.30
2018-12-14T02:42:34.846Z,12.33
2018-12-14T02:45:02.629Z,11.17
2018-12-14T02:47:31.323Z,10.43
2018-12-14T02:49:58.921Z,8.93
2018-12-14T02:52:26.619Z,11.20
2018-12-14T02:54:54.151Z,10.33
2018-12-14T02:57:21.768Z,10.20
2018-12-14T02:59:49.313Z,9.37
2018-12-14T03:02:16.906Z,9.97
2018-12-14T03:04:44.470Z,10.47
2018-12-14T03:07:12.052Z,9.40
2018-12-14T03:09:39.795Z,10.40
2018-12-14T03:12:07.346Z,9.90
2018-12-14T03:14:35.089Z,9.50
2018-12-14T03:17:02.754Z,10.17
2018-12-14T03:19:30.284Z,10.60
2018-12-14T03:21:57.874Z,10.50
2018-12-14T03:24:25.399Z,10.87
2018-12-14T03:26:53.055Z,9.83
2018-12-14T03:29:20.685Z,9.50
2018-12-14T03:31:48.337Z,9.10
2018-12-14T03:34:15.890Z,10.10
2018-12-14T03:36:43.482Z,10.50
2018-12-14T03:39:11.185Z,10.37
2018-12-14T03:41:38.697Z,10.43
2018-12-14T03:44:06.285Z,10.10
2018-12-14T03:46:34.036Z,9.40
2018-12-14T03:49:01.658Z,9.97
2018-12-14T03:51:29.197Z,9.97
2018-12-14T03:53:56.859Z,9.73
2018-12-14T03:56:24.495Z,9.33
2018-12-14T03:58:52.047Z,10.67
2018-12-14T04:01:19.582Z,10.00
2018-12-14T04:03:47.133Z,10.33
2018-12-14T04:06:14.664Z,11.37
2018-12-14T04:08:42.325Z,10.10
2018-12-14T04:11:10.090Z,11.80
2018-12-14T04:13:37.619Z,10.53
2018-12-14T04:16:05.229Z,11.00
2018-12-14T04:18:32.824Z,11.20
2018-12-14T04:21:00.374Z,11.03
2018-12-14T04:23:28.062Z,12.03
2018-12-14T04:25:55.639Z,11.10
2018-12-14T04:28:23.336Z,12.07
2018-12-14T04:30:50.865Z,11.23
2018-12-14T04:33:18.839Z,12.23
2018-12-14T04:35:46.481Z,11.57
2018-12-14T04:38:14.085Z,11.03
2018-12-14T04:40:41.723Z,11.60
2018-12-14T04:43:09.396Z,11.70
2018-12-14T04:45:36.928Z,11.53
2018-12-14T04:48:04.446Z,11.13
2018-12-14T04:50:32.000Z,13.43
2018-12-14T04:52:59.589Z,12.63
2018-12-14T04:55:27.123Z,11.70
2018-12-14T04:57:54.702Z,12.00
2018-12-14T05:00:22.362Z,12.40
2018-12-14T05:02:49.955Z,11.67
2018-12-14T05:05:17.475Z,13.80
2018-12-14T05:07:45.046Z,12.07
2018-12-14T05:10:12.597Z,11.70
2018-12-14T05:12:40.273Z,11.20
2018-12-14T05:15:07.990Z,12.07
2018-12-14T05:17:35.810Z,12.43
2018-12-14T05:20:04.419Z,12.30
2018-12-14T05:22:31.971Z,12.80
2018-12-14T05:24:59.631Z,12.30
2018-12-14T05:27:27.222Z,12.77
2018-12-14T05:29:55.043Z,12.93
2018-12-14T05:32:22.607Z,11.60
2018-12-14T05:34:50.222Z,12.90
2018-12-14T05:37:17.767Z,11.73
2018-12-14T05:39:45.350Z,13.03
2018-12-14T05:42:12.914Z,11.50
2018-12-14T05:44:40.476Z,11.53
2018-12-14T05:47:08.022Z,13.63
2018-12-14T05:49:35.812Z,12.07
2018-12-14T05:52:03.385Z,12.03
2018-12-14T05:54:30.971Z,13.20
2018-12-14T05:56:58.582Z,13.90
2018-12-14T05:59:26.164Z,12.57
2018-12-14T06:01:53.694Z,13.33
2018-12-14T06:04:21.310Z,13.43
2018-12-14T06:06:49.197Z,11.20
2018-12-14T06:09:17.036Z,13.53
2018-12-14T06:11:44.617Z,12.30
2018-12-14T06:14:12.181Z,12.40
2018-12-14T06:16:39.762Z,12.80
2018-12-14T06:19:07.388Z,11.83
2018-12-14T06:21:35.086Z,12.50
2018-12-14T06:24:02.666Z,12.47
2018-12-14T06:26:30.282Z,12.83
2018-12-14T06:28:57.857Z,12.13
2018-12-14T06:31:25.463Z,13.40
2018-12-14T06:33:53.072Z,12.50
2018-12-14T06:36:20.622Z,13.53
2018-12-14T06:38:48.205Z,13.77
2018-12-14T06:41:15.958Z,12.77
2018-12-14T06:43:43.493Z,12.70
2018-12-14T06:46:11.148Z,11.90
2018-12-14T06:48:38.690Z,13.20
2018-12-14T06:51:06.740Z,12.50
2018-12-14T06:53:34.418Z,12.77
2018-12-14T06:56:02.901Z,11.83
2018-12-14T06:58:30.447Z,13.83
2018-12-14T07:00:58.062Z,13.03
2018-12-14T07:03:25.604Z,12.97
2018-12-14T07:05:53.151Z,12.93
2018-12-14T07:08:20.695Z,13.57
2018-12-14T07:10:48.292Z,14.10
2018-12-14T07:13:21.734Z,12.97
2018-12-14T07:15:46.338Z,12.93
2018-12-14T07:18:13.888Z,11.87
2018-12-14T07:20:41.509Z,12.43
2018-12-14T07:23:09.088Z,13.53
2018-12-14T07:25:36.754Z,12.47
2018-12-14T07:28:04.313Z,12.60
2018-12-14T07:30:31.953Z,11.77
2018-12-14T07:32:59.619Z,12.87
2018-12-14T07:35:27.409Z,10.90
2018-12-14T07:37:54.982Z,13.07
2018-12-14T07:40:22.532Z,12.50
2018-12-14T07:42:50.087Z,12.77
2018-12-14T07:45:17.866Z,13.13
2018-12-14T07:47:45.418Z,12.53
2018-12-14T07:50:13.096Z,12.47
2018-12-14T07:52:40.628Z,11.63
2018-12-14T07:55:08.238Z,11.57
2018-12-14T07:57:35.996Z,11.93
2018-12-14T08:00:05.427Z,11.53
2018-12-14T08:02:32.969Z,12.60
2018-12-14T08:05:00.564Z,12.77
2018-12-14T08:07:28.139Z,13.00
2018-12-14T08:09:55.766Z,12.63
2018-12-14T08:12:23.330Z,13.00
2018-12-14T08:14:50.897Z,13.10
2018-12-14T08:17:18.559Z,11.67
2018-12-14T08:19:46.080Z,11.00
2018-12-14T08:22:13.687Z,13.40
2018-12-14T08:24:41.253Z,11.40
2018-12-14T08:27:08.846Z,11.90
2018-12-14T08:29:36.527Z,11.27
2018-12-14T08:32:04.067Z,11.30
2018-12-14T08:34:31.816Z,12.17
2018-12-14T08:36:59.342Z,11.57
2018-12-14T08:39:26.958Z,12.80
2018-12-14T08:41:54.492Z,12.90
2018-12-14T08:44:22.069Z,12.17
2018-12-14T08:46:49.667Z,12.77
2018-12-14T08:49:17.232Z,12.43
2018-12-14T08:51:44.773Z,11.30
2018-12-14T08:54:12.345Z,11.13
2018-12-14T08:56:39.901Z,11.07
2018-12-14T08:59:07.461Z,10.37
2018-12-14T09:01:35.178Z,12.10
2018-12-14T09:04:02.705Z,10.50
2018-12-14T09:06:30.274Z,11.47
2018-12-14T09:08:58.238Z,10.30
2018-12-14T09:11:25.776Z,10.53
2018-12-14T09:13:53.567Z,11.93
2018-12-14T09:16:21.143Z,9.60
2018-12-14T09:18:49.597Z,10.70
2018-12-14T09:21:17.158Z,11.07
2018-12-14T09:23:44.715Z,9.97
2018-12-14T09:26:12.572Z,10.67
2018-12-14T09:28:40.306Z,10.73
2018-12-14T09:31:07.988Z,10.80
2018-12-14T09:33:35.539Z,10.43
2018-12-14T09:36:03.084Z,8.83
2018-12-14T09:38:30.767Z,10.00
2018-12-14T09:40:58.315Z,9.33
2018-12-14T09:43:27.548Z,9.83
2018-12-14T09:45:55.198Z,10.03
2018-12-14T09:48:22.845Z,9.80
2018-12-14T09:50:50.385Z,10.10
2018-12-14T09:53:17.909Z,9.83
2018-12-14T09:55:45.714Z,9.97
2018-12-14T09:58:13.262Z,8.47
2018-12-14T10:00:41.891Z,9.37
2018-12-14T10:03:09.441Z,10.70
2018-12-14T10:05:37.159Z,10.00
2018-12-14T10:08:04.906Z,9.47
2018-12-14T10:10:32.562Z,9.70
2018-12-14T10:13:00.126Z,10.07
2018-12-14T10:15:27.719Z,10.50
2018-12-14T10:17:55.363Z,10.17
2018-12-14T10:20:22.935Z,9.50
2018-12-14T10:22:50.441Z,9.57
2018-12-14T10:25:17.991Z,9.53
2018-12-14T10:27:45.525Z,9.90
2018-12-14T10:30:13.365Z,12.27
2018-12-14T10:32:40.927Z,11.30
2018-12-14T10:35:09.792Z,10.77
2018-12-14T10:37:37.493Z,10.57
2018-12-14T10:40:09.396Z,10.97
2018-12-14T10:42:36.961Z,9.80
2018-12-14T10:45:05.902Z,9.50
2018-12-14T10:47:33.711Z,9.50
2018-12-14T10:50:01.264Z,9.60
2018-12-14T10:52:28.853Z,10.70
2018-12-14T10:54:56.484Z,10.00
2018-12-14T10:57:24.064Z,10.23
2018-12-14T10:59:51.686Z,11.03
2018-12-14T11:02:19.213Z,10.07
2018-12-14T11:04:46.735Z,9.10
2018-12-14T11:07:14.290Z,10.37
2018-12-14T11:09:41.822Z,9.90
2018-12-14T11:12:09.377Z,9.93
2018-12-14T11:14:37.017Z,10.77
2018-12-14T11:17:05.614Z,11.70
2018-12-14T11:19:33.361Z,10.20
2018-12-14T11:22:00.885Z,9.30
2018-12-14T11:24:28.545Z,9.87
2018-12-14T11:26:56.107Z,10.20
2018-12-14T11:29:23.691Z,8.57
2018-12-14T11:31:51.231Z,9.70
2018-12-14T11:34:18.823Z,10.20
2018-12-14T11:36:46.534Z,11.27
2018-12-14T11:39:14.065Z,11.47
2018-12-14T11:41:41.826Z,10.47
2018-12-14T11:44:09.408Z,10.10
2018-12-14T11:46:36.976Z,10.30
2018-12-14T11:49:04.555Z,10.50
2018-12-14T11:51:32.181Z,10.80
2018-12-14T11:53:59.766Z,9.97
2018-12-14T11:56:27.323Z,10.30
2018-12-14T11:58:54.949Z,10.47
2018-12-14T12:01:22.558Z,10.10
2018-12-14T12:03:50.115Z,10.83
2018-12-14T12:06:17.770Z,10.70
2018-12-14T12:08:45.367Z,9.53
2018-12-14T12:11:13.044Z,11.10
2018-12-14T12:13:40.614Z,10.10
2018-12-14T12:16:08.183Z,10.80
2018-12-14T12:18:35.739Z,10.93
2018-12-14T12:21:03.396Z,10.80
2018-12-14T12:23:31.000Z,11.17
2018-12-14T12:25:58.537Z,9.43
2018-12-14T12:28:26.097Z,10.60
2018-12-14T12:30:53.679Z,11.03
2018-12-14T12:33:21.281Z,10.40
2018-12-14T12:35:48.990Z,11.40
2018-12-14T12:38:16.526Z,10.67
2018-12-14T12:40:44.090Z,11.10
2018-12-14T12:43:11.691Z,11.17
2018-12-14T12:45:39.391Z,10.80
2018-12-14T12:48:06.971Z,12.20
2018-12-14T12:50:34.530Z,11.60
2018-12-14T12:53:02.152Z,11.87
2018-12-14T12:55:30.656Z,11.20
2018-12-14T12:57:58.251Z,12.67
2018-12-14T13:00:25.927Z,11.70
2018-12-14T13:02:53.459Z,11.20
2018-12-14T13:05:21.021Z,10.67
2018-12-14T13:07:48.665Z,12.20
2018-12-14T13:10:16.229Z,11.33
2018-12-14T13:12:43.797Z,11.10
2018-12-14T13:15:11.378Z,10.37
2018-12-14T13:17:38.983Z,11.67
2018-12-14T13:20:06.762Z,12.47
2018-12-14T13:22:34.564Z,11.70
2018-12-14T13:25:02.114Z,10.87
2018-12-14T13:27:29.636Z,12.37
2018-12-14T13:29:57.238Z,10.63
2018-12-14T13:32:24.828Z,11.07
2018-12-14T13:34:52.383Z,10.17
2018-12-14T13:37:19.965Z,12.10
2018-12-14T13:39:47.641Z,11.20
2018-12-14T13:42:15.235Z,11.50
2018-12-14T13:44:46.523Z,10.43
2018-12-14T13:47:12.789Z,10.77
2018-12-14T13:49:40.427Z,11.57
2018-12-14T13:52:08.001Z,10.40
2018-12-14T13:54:35.630Z,11.47
2018-12-14T13:57:03.201Z,11.47
2018-12-14T13:59:30.735Z,10.43
2018-12-14T14:01:58.287Z,10.93
2018-12-14T14:04:25.848Z,11.23
2018-12-14T14:06:53.403Z,11.97
2018-12-14T14:09:20.975Z,11.70
2018-12-14T14:11:48.575Z,12.30
2018-12-14T14:14:16.283Z,11.30
2018-12-14T14:16:43.978Z,11.00
2018-12-14T14:19:11.523Z,11.40
2018-12-14T14:21:39.099Z,11.50
2018-12-14T14:24:06.672Z,11.00
2018-12-14T14:26:34.239Z,10.90
2018-12-14T14:29:01.863Z,13.10
2018-12-14T14:31:29.458Z,11.43
2018-12-14T14:33:57.038Z,15.87
2018-12-14T14:36:24.585Z,14.10
2018-12-14T14:38:52.916Z,13.37
2018-12-14T14:41:20.601Z,13.27
2018-12-14T14:43:48.152Z,11.00
2018-12-14T14:46:15.703Z,12.33
2018-12-14T14:48:43.413Z,11.80
2018-12-14T14:51:11.131Z,11.80
2018-12-14T14:53:38.749Z,13.23
2018-12-14T14:56:06.416Z,13.80
2018-12-14T14:58:34.081Z,12.70
2018-12-14T15:01:01.780Z,11.80
2018-12-14T15:03:29.500Z,11.37
2018-12-14T15:05:57.163Z,12.50
2018-12-14T15:08:24.687Z,11.33
2018-12-14T15:10:52.243Z,11.30
2018-12-14T15:13:19.830Z,12.10
2018-12-14T15:15:47.367Z,12.57
2018-12-14T15:18:14.941Z,10.87
2018-12-14T15:20:42.645Z,12.00
2018-12-14T15:23:10.238Z,12.30
2018-12-14T15:25:37.876Z,12.70
2018-12-14T15:28:05.422Z,10.93
2018-12-14T15:30:32.979Z,11.87
2018-12-14T15:33:01.506Z,11.77
2018-12-14T15:35:29.184Z,11.33
2018-12-14T15:37:56.749Z,11.37
2018-12-14T15:40:24.377Z,11.67
2018-12-14T15:42:52.007Z,13.07
2018-12-14T15:45:19.557Z,11.43
2018-12-14T15:47:47.124Z,11.70
2018-12-14T15:50:14.688Z,13.27
2018-12-14T15:52:42.250Z,13.00
2018-12-14T15:55:09.776Z,12.67
2018-12-14T15:57:37.354Z,12.10
2018-12-14T16:00:06.678Z,11.30
2018-12-14T16:02:34.218Z,10.07
2018-12-14T16:05:01.787Z,12.87
2018-12-14T16:07:29.348Z,12.90
2018-12-14T16:09:57.068Z,12.60
2018-12-14T16:12:24.635Z,12.20
2018-12-14T16:14:52.268Z,12.80
2018-12-14T16:17:19.918Z,13.33
2018-12-14T16:19:47.574Z,11.70
2018-12-14T16:22:15.136Z,11.37
2018-12-14T16:24:42.706Z,14.57
2018-12-14T16:27:10.255Z,14.90
2018-12-14T16:29:37.958Z,14.33
2018-12-14T16:32:05.523Z,12.23
2018-12-14T16:34:33.145Z,14.63
2018-12-14T16:37:01.820Z,15.97
2018-12-14T16:39:29.388Z,13.93
2018-12-14T16:41:56.956Z,15.20
2018-12-14T16:44:24.508Z,14.33
2018-12-14T16:46:52.231Z,17.23
2018-12-14T16:49:20.013Z,13.83
2018-12-14T16:51:47.584Z,17.30
2018-12-14T16:54:15.208Z,13.93
2018-12-14T16:56:42.914Z,14.30
2018-12-14T16:59:10.468Z,14.43
2018-12-14T17:01:38.137Z,14.30
2018-12-14T17:04:05.956Z,12.60
2018-12-14T17:06:33.619Z,14.37
2018-12-14T17:09:01.192Z,13.50
2018-12-14T17:11:29.118Z,13.90
2018-12-14T17:13:56.697Z,15.40
2018-12-14T17:16:24.233Z,13.47
2018-12-14T17:18:51.866Z,13.20
2018-12-14T17:21:19.482Z,14.23
2018-12-14T17:23:47.061Z,13.30
2018-12-14T17:26:14.639Z,13.10
2018-12-14T17:28:42.226Z,14.07
2018-12-14T17:31:09.781Z,13.27
2018-12-14T17:33:37.533Z,14.50
2018-12-14T17:36:05.044Z,13.73
2018-12-14T17:38:32.643Z,13.70
2018-12-14T17:41:00.207Z,13.77
2018-12-14T17:43:27.742Z,14.00
2018-12-14T17:45:55.428Z,14.30
2018-12-14T17:48:23.052Z,12.77
2018-12-14T17:50:51.273Z,12.90
2018-12-14T17:53:19.053Z,13.57
2018-12-14T17:55:46.673Z,12.10
2018-12-14T17:58:14.383Z,14.47
2018-12-14T18:00:41.985Z,12.70
2018-12-14T18:03:09.545Z,12.30
2018-12-14T18:05:37.087Z,12.10
2018-12-14T18:08:04.700Z,12.47
2018-12-14T18:10:32.246Z,11.10
2018-12-14T18:12:59.812Z,10.90
2018-12-14T18:15:27.405Z,11.90
2018-12-14T18:17:54.997Z,10.80
2018-12-14T18:20:22.519Z,9.80
2018-12-14T18:22:50.310Z,10.60
2018-12-14T18:25:18.240Z,9.83
2018-12-14T18:27:45.775Z,9.03
2018-12-14T18:30:13.634Z,12.53
2018-12-14T18:32:41.162Z,12.43
2018-12-14T18:35:08.771Z,11.00
2018-12-14T18:37:36.439Z,9.70
2018-12-14T18:40:06.008Z,10.03
2018-12-14T18:42:33.605Z,9.57
2018-12-14T18:45:02.067Z,7.83
2018-12-14T18:47:29.583Z,7.07
2018-12-14T18:49:57.362Z,8.07
2018-12-14T18:52:24.918Z,7.40
2018-12-14T18:54:52.488Z,8.03
2018-12-14T18:57:20.178Z,8.67
2018-12-14T18:59:47.744Z,7.23
2018-12-14T19:02:15.277Z,9.03
2018-12-14T19:04:42.890Z,8.70
2018-12-14T19:07:10.546Z,8.80
2018-12-14T19:09:38.274Z,8.50
2018-12-14T19:12:05.917Z,7.37
2018-12-14T19:14:33.483Z,8.33
2018-12-14T19:17:01.003Z,7.90
2018-12-14T19:19:28.602Z,7.70
2018-12-14T19:21:56.238Z,7.67
2018-12-14T19:24:23.753Z,7.53
2018-12-14T19:26:51.317Z,7.83
2018-12-14T19:29:18.868Z,9.00
2018-12-14T19:31:46.398Z,9.00
2018-12-14T19:34:14.168Z,7.70
2018-12-14T19:36:41.832Z,7.90
2018-12-14T19:39:09.467Z,8.17
2018-12-14T19:41:37.050Z,7.23
2018-12-14T19:44:04.597Z,7.20
2018-12-14T19:46:32.161Z,8.00
2018-12-14T19:48:59.747Z,6.07
2018-12-14T19:51:27.401Z,6.20
2018-12-14T19:53:54.960Z,6.40
2018-12-14T19:56:22.565Z,6.77
2018-12-14T19:58:50.255Z,6.73
2018-12-14T20:01:17.870Z,6.80
2018-12-14T20:03:45.603Z,6.50
2018-12-14T20:06:13.242Z,6.20
2018-12-14T20:08:40.786Z,6.20
2018-12-14T20:11:08.435Z,7.17
2018-12-14T20:13:35.989Z,6.90
2018-12-14T20:16:03.530Z,6.13
2018-12-14T20:18:31.164Z,5.73
2018-12-14T20:20:58.814Z,6.20
2018-12-14T20:23:26.374Z,6.00
2018-12-14T20:25:53.986Z,6.47
2018-12-14T20:28:21.543Z,6.67
2018-12-14T20:30:49.054Z,6.10
2018-12-14T20:33:16.873Z,7.03
2018-12-14T20:35:44.451Z,7.60
2018-12-14T20:38:12.079Z,7.40
2018-12-14T20:40:39.667Z,7.47
2018-12-14T20:43:07.197Z,6.77
2018-12-14T20:45:34.797Z,6.70
2018-12-14T20:48:02.440Z,6.87
2018-12-14T20:50:29.975Z,7.10
2018-12-14T20:52:57.509Z,6.57
2018-12-14T20:55:26.184Z,7.03
2018-12-14T20:57:53.725Z,8.33
2018-12-14T21:00:21.621Z,6.90
2018-12-14T21:02:49.339Z,6.63
2018-12-14T21:05:16.877Z,7.80
2018-12-14T21:07:45.366Z,7.43
2018-12-14T21:10:13.223Z,8.57
2018-12-14T21:12:40.741Z,6.63
2018-12-14T21:15:08.378Z,7.10
2018-12-14T21:17:35.986Z,7.03
2018-12-14T21:20:04.716Z,6.20
2018-12-14T21:22:32.256Z,8.17
2018-12-14T21:24:59.818Z,7.27
2018-12-14T21:27:27.469Z,6.57
2018-12-14T21:29:54.994Z,6.80
2018-12-14T21:32:22.722Z,7.70
2018-12-14T21:34:50.254Z,7.07
2018-12-14T21:37:18.675Z,7.10
2018-12-14T21:39:46.844Z,7.40
2018-12-14T21:42:14.382Z,7.37
2018-12-14T21:44:42.825Z,7.80
2018-12-14T21:47:10.442Z,8.17
2018-12-14T21:49:39.950Z,8.50
2018-12-14T21:52:07.614Z,7.47
2018-12-14T21:54:35.470Z,7.60
2018-12-14T21:57:03.102Z,6.40
2018-12-14T21:59:30.661Z,6.97
2018-12-14T22:01:58.235Z,6.47
2018-12-14T22:04:25.799Z,8.00
2018-12-14T22:06:53.319Z,8.37
2018-12-14T22:09:20.886Z,8.40
2018-12-14T22:11:48.422Z,7.53
2018-12-14T22:14:16.030Z,8.20
2018-12-14T22:16:43.589Z,7.27
2018-12-14T22:19:11.219Z,7.93
2018-12-14T22:21:39.213Z,7.80
2018-12-14T22:24:07.720Z,8.03
2018-12-14T22:26:35.245Z,7.80
2018-12-14T22:29:02.907Z,7.53
2018-12-14T22:31:30.496Z,7.83
2018-12-14T22:33:58.081Z,6.50
2018-12-14T22:36:25.638Z,6.60
2018-12-14T22:38:53.162Z,8.67
2018-12-14T22:41:20.697Z,6.13
2018-12-14T22:43:48.407Z,7.47
2018-12-14T22:46:15.918Z,6.80
2018-12-14T22:48:43.491Z,6.43
2018-12-14T22:51:11.538Z,7.30
2018-12-14T22:53:39.206Z,7.40
2018-12-14T22:56:06.818Z,7.47
2018-12-14T22:58:34.367Z,6.93
2018-12-14T23:01:01.997Z,7.17
2018-12-14T23:03:29.514Z,6.53
2018-12-14T23:05:58.067Z,6.90
2018-12-14T23:08:25.607Z,6.70
2018-12-14T23:10:53.183Z,6.87
2018-12-14T23:13:21.059Z,5.87
2018-12-14T23:15:48.595Z,5.33
2018-12-14T23:18:17.516Z,6.70
2018-12-14T23:20:45.084Z,6.90
2018-12-14T23:23:12.630Z,7.17
2018-12-14T23:25:40.184Z,7.23
2018-12-14T23:28:08.891Z,7.33
2018-12-14T23:30:36.415Z,6.50
2018-12-14T23:33:04.173Z,6.70
2018-12-14T23:35:31.719Z,6.57
2018-12-14T23:37:59.354Z,7.30
2018-12-14T23:40:26.925Z,6.17
2018-12-14T23:42:54.576Z,6.80
2018-12-14T23:45:22.194Z,6.73
2018-12-14T23:47:49.694Z,6.00
2018-12-14T23:50:17.238Z,6.60
2018-12-14T23:52:44.878Z,7.17
2018-12-14T23:55:12.410Z,7.47
2018-12-14T23:57:40.389Z,7.60
